Time;durP1;ratioP1;P1;durP2;ratioP2;P2;SDS_P1;SDS_P2;PMS_P1;PMS_P2;Temp;Humidity;BMP_temperature;BMP_pressure;BME280_temperature;BME280_humidity;BME280_pressure;Samples;Min_cycle;Max_cycle;Signal;HPM_P1;HPM_P2
2023/10/09 00:02:12;;;;;;;5.03;1.80;;;;;;;12.47;100.00;100982.59;5090127;28;20093;-64
2023/10/09 00:04:41;;;;;;;4.53;1.58;;;;;;;12.44;100.00;100969.59;5092192;28;20156;-64
2023/10/09 00:07:10;;;;;;;3.38;1.40;;;;;;;12.57;100.00;100990.97;5091933;28;20394;-64
2023/10/09 00:09:47;;;;;;;3.80;1.55;;;;;;;12.57;100.00;100979.59;5083797;28;20044;-64
2023/10/09 00:12:22;;;;;;;4.05;1.42;;;;;;;12.57;100.00;100980.47;5083376;28;20098;-64
2023/10/09 00:14:50;;;;;;;4.38;1.67;;;;;;;12.56;100.00;100988.41;5086531;28;20290;-64
2023/10/09 00:17:17;;;;;;;2.72;1.15;;;;;;;12.67;100.00;100994.91;5086198;28;20057;-64
2023/10/09 00:19:49;;;;;;;3.63;1.40;;;;;;;12.60;100.00;100987.34;5086480;28;20056;-64
2023/10/09 00:22:26;;;;;;;3.78;1.45;;;;;;;12.67;100.00;100980.91;5087599;28;20044;-64
2023/10/09 00:25:12;;;;;;;2.40;1.17;;;;;;;12.77;100.00;100984.88;5089680;28;20075;-64
2023/10/09 00:27:46;;;;;;;2.15;1.10;;;;;;;12.77;100.00;100991.91;5078782;28;20055;-64
2023/10/09 00:30:18;;;;;;;2.95;1.30;;;;;;;12.78;100.00;100990.97;5082198;28;20463;-64
2023/10/09 00:33:07;;;;;;;1.97;1.00;;;;;;;12.83;100.00;100987.22;5070759;28;20511;-64
2023/10/09 00:35:37;;;;;;;2.33;1.02;;;;;;;12.88;100.00;100993.13;5073294;28;20060;-64
2023/10/09 00:40:56;;;;;;;1.98;0.98;;;;;;;12.97;100.00;101006.81;5074166;28;20098;-64
2023/10/09 00:43:29;;;;;;;3.22;1.20;;;;;;;12.93;100.00;100997.34;5076386;28;20398;-64
2023/10/09 00:46:12;;;;;;;2.80;1.10;;;;;;;12.93;100.00;100994.72;5074745;28;20063;-64
2023/10/09 00:48:41;;;;;;;3.50;1.20;;;;;;;12.88;100.00;100989.66;5081797;28;20420;-64
2023/10/09 00:51:18;;;;;;;3.05;1.20;;;;;;;12.87;100.00;100990.56;5091414;28;20059;-64
2023/10/09 00:53:50;;;;;;;2.45;1.20;;;;;;;12.83;100.00;100978.50;5091259;28;20139;-64
2023/10/09 00:56:26;;;;;;;4.03;1.10;;;;;;;12.82;100.00;100976.78;5087358;28;20056;-64
2023/10/09 00:59:06;;;;;;;2.92;1.25;;;;;;;12.79;100.00;100976.94;5089737;28;20281;-64
2023/10/09 01:01:48;;;;;;;4.05;1.30;;;;;;;12.71;100.00;100974.59;5090664;28;20445;-64
2023/10/09 01:04:17;;;;;;;2.33;1.10;;;;;;;12.63;100.00;100961.81;5088912;28;20044;-64
2023/10/09 01:07:08;;;;;;;2.17;1.00;;;;;;;12.58;100.00;100965.56;5089290;28;20048;-64
2023/10/09 01:09:38;;;;;;;2.58;1.30;;;;;;;12.53;100.00;100977.09;5087140;28;20056;-64
2023/10/09 01:12:05;;;;;;;3.00;1.23;;;;;;;12.48;100.00;100976.44;5090554;28;20063;-64
2023/10/09 01:14:41;;;;;;;2.70;1.05;;;;;;;12.42;100.00;100981.09;5090280;28;20481;-64
2023/10/09 01:17:09;;;;;;;2.88;1.15;;;;;;;12.38;100.00;100990.00;5089893;28;20436;-64
2023/10/09 01:19:36;;;;;;;4.68;1.20;;;;;;;12.38;100.00;100997.88;5084919;28;20127;-64
2023/10/09 01:22:16;;;;;;;2.13;1.08;;;;;;;12.31;100.00;100989.41;5091297;28;20044;-64
2023/10/09 01:24:43;;;;;;;1.83;1.10;;;;;;;12.26;100.00;100999.25;5090438;28;20477;-64
2023/10/09 01:27:16;;;;;;;3.30;1.38;;;;;;;12.15;100.00;100982.16;5089281;28;20441;-64
2023/10/09 01:29:45;;;;;;;2.08;1.10;;;;;;;12.28;100.00;101003.50;5084188;28;20055;-64
2023/10/09 01:32:19;;;;;;;2.33;1.10;;;;;;;12.28;100.00;100995.63;5074439;28;20084;-64
2023/10/09 01:34:49;;;;;;;3.22;1.30;;;;;;;12.28;100.00;100992.16;5087885;28;20046;-64
2023/10/09 01:37:22;;;;;;;3.22;1.20;;;;;;;12.34;100.00;100991.91;5090497;28;20052;-64
2023/10/09 01:40:24;;;;;;;2.05;1.20;;;;;;;12.32;100.00;100986.72;5089870;28;20048;-64
2023/10/09 01:42:46;;;;;;;3.20;1.20;;;;;;;12.12;100.00;100955.19;5090108;28;20067;-64
2023/10/09 01:47:51;;;;;;;;;;;;;;;12.52;100.00;101004.28;5084502;28;20048;-64
2023/10/09 01:50:30;;;;;;;1.95;1.00;;;;;;;12.42;100.00;100995.06;5085618;28;19963;-64
2023/10/09 01:53:01;;;;;;;2.28;1.10;;;;;;;12.51;100.00;101010.44;5079260;28;20048;-64
2023/10/09 01:55:39;;;;;;;2.65;1.10;;;;;;;12.54;100.00;100996.34;5086101;28;20408;-64
2023/10/09 02:00:56;;;;;;;2.58;1.10;;;;;;;12.59;100.00;100999.63;5081170;28;20048;-64
2023/10/09 02:03:23;;;;;;;1.92;1.00;;;;;;;12.58;100.00;100991.81;5087663;28;20052;-64
2023/10/09 02:06:37;;;;;;;3.17;1.30;;;;;;;12.62;100.00;100982.88;5096005;28;20464;-64
2023/10/09 02:08:49;;;;;;;2.88;1.20;;;;;;;12.67;100.00;100987.00;5069979;28;20048;-64
2023/10/09 02:11:35;;;;;;;3.05;1.33;;;;;;;12.77;100.00;100990.13;5080155;28;20066;-64
2023/10/09 02:14:18;;;;;;;1.63;1.00;;;;;;;12.82;100.00;100985.53;5089670;28;20059;-64
2023/10/09 02:17:02;;;;;;;3.45;1.33;;;;;;;12.80;100.00;100981.25;5089854;28;20047;-64
2023/10/09 02:19:37;;;;;;;2.17;1.10;;;;;;;12.76;100.00;100972.63;5086356;28;20048;-64
2023/10/09 02:22:13;;;;;;;3.17;1.23;;;;;;;12.85;100.00;100980.13;5081658;28;20052;-64
2023/10/09 02:24:51;;;;;;;3.03;1.17;;;;;;;12.88;100.00;100984.41;5085936;28;20537;-64
2023/10/09 02:30:19;;;;;;;2.28;1.10;;;;;;;12.88;100.00;100987.88;5075930;28;20454;-64
2023/10/09 02:32:52;;;;;;;1.85;1.00;;;;;;;12.93;100.00;100992.09;5087857;28;20051;-64
2023/10/09 02:35:28;;;;;;;1.55;1.00;;;;;;;12.94;100.00;100985.91;5077194;28;20048;-64
2023/10/09 02:37:57;;;;;;;3.88;1.10;;;;;;;13.01;100.00;100982.09;5088218;28;20442;-64
2023/10/09 02:40:32;;;;;;;3.75;1.30;;;;;;;12.92;100.00;100975.44;5081221;28;20135;-64
2023/10/09 02:42:59;;;;;;;2.55;1.20;;;;;;;12.99;100.00;100981.31;5084759;28;20044;-64
2023/10/09 02:45:32;;;;;;;1.55;0.90;;;;;;;12.94;100.00;100970.97;5082165;28;20049;-64
2023/10/09 02:48:00;;;;;;;;;;;;;;;13.10;100.00;100989.56;5086299;28;20052;-64
2023/10/09 02:50:28;;;;;;;1.50;0.82;;;;;;;13.04;100.00;100989.84;5089378;28;20362;-64
2023/10/09 02:53:00;;;;;;;2.42;1.20;;;;;;;13.05;100.00;100989.78;5089012;28;20286;-64
2023/10/09 02:55:27;;;;;;;1.98;1.00;;;;;;;13.06;100.00;100980.97;5086345;28;20482;-64
2023/10/09 02:58:10;;;;;;;1.90;1.00;;;;;;;13.01;100.00;100969.78;5088765;28;20048;-64
2023/10/09 03:00:37;;;;;;;1.98;1.02;;;;;;;12.99;100.00;100970.78;5085330;28;20055;-64
2023/10/09 03:03:07;;;;;;;1.23;0.82;;;;;;;13.05;100.00;100986.28;5087540;28;20052;-64
2023/10/09 03:05:38;;;;;;;2.30;0.90;;;;;;;13.01;100.00;100979.47;5088512;28;20056;-64
2023/10/09 03:08:05;;;;;;;2.30;1.00;;;;;;;13.01;100.00;100984.72;5083032;28;20055;-64
2023/10/09 03:10:34;;;;;;;1.75;1.00;;;;;;;12.96;100.00;100990.19;5089239;28;20066;-64
2023/10/09 03:13:03;;;;;;;2.20;1.10;;;;;;;12.93;100.00;100986.84;5089266;28;20062;-64
2023/10/09 03:15:35;;;;;;;1.63;0.80;;;;;;;12.93;100.00;100986.84;5086858;28;20058;-64
2023/10/09 03:18:04;;;;;;;1.45;0.90;;;;;;;12.92;100.00;100991.22;5075732;28;20515;-64
2023/10/09 03:20:31;;;;;;;1.73;0.88;;;;;;;12.87;100.00;100985.31;5088897;28;20493;-64
2023/10/09 03:23:01;;;;;;;1.88;1.05;;;;;;;12.77;100.00;100986.66;5090770;28;20425;-64
2023/10/09 03:25:28;;;;;;;2.78;1.00;;;;;;;12.73;100.00;100999.91;5083850;28;20052;-64
2023/10/09 03:27:58;;;;;;;3.70;1.20;;;;;;;12.73;100.00;101001.69;5087911;28;20390;-64
2023/10/09 03:30:25;;;;;;;1.63;0.90;;;;;;;12.50;100.00;100969.34;5087699;28;20067;-64
2023/10/09 03:32:53;;;;;;;2.22;1.17;;;;;;;12.67;100.00;101010.66;5087202;28;20512;-64
2023/10/09 03:35:25;;;;;;;1.80;0.93;;;;;;;12.73;100.00;101013.03;5088395;28;20051;-64
2023/10/09 03:37:57;;;;;;;2.70;1.20;;;;;;;12.72;100.00;101005.22;5091311;28;20062;-64
2023/10/09 03:40:24;;;;;;;2.13;1.00;;;;;;;12.73;100.00;101010.41;5088607;28;20051;-64
2023/10/09 03:42:52;;;;;;;1.85;1.02;;;;;;;12.81;100.00;101009.25;5088774;28;20477;-64
2023/10/09 03:45:26;;;;;;;2.97;1.10;;;;;;;12.78;100.00;101009.34;5088659;28;20090;-64
2023/10/09 03:48:11;;;;;;;3.40;1.30;;;;;;;12.79;100.00;101019.81;5088005;28;20052;-64
2023/10/09 03:50:38;;;;;;;3.83;1.58;;;;;;;12.80;100.00;101018.03;5080822;28;20049;-64
2023/10/09 03:53:11;;;;;;;2.78;1.17;;;;;;;12.71;100.00;100998.25;5089612;28;20083;-64
2023/10/09 03:55:39;;;;;;;2.25;1.10;;;;;;;12.73;100.00;101007.78;5091249;28;20058;-64
2023/10/09 03:58:07;;;;;;;1.67;0.98;;;;;;;12.87;100.00;101014.22;5091400;28;20419;-64
2023/10/09 04:00:44;;;;;;;1.70;0.98;;;;;;;12.81;100.00;101019.75;5092184;28;20071;-64
2023/10/09 04:03:14;;;;;;;3.33;1.42;;;;;;;12.89;100.00;101025.50;5079237;28;20730;-64
2023/10/09 04:05:43;;;;;;;2.33;1.05;;;;;;;12.89;100.00;101031.66;5090950;28;20052;-63
2023/10/09 04:08:19;;;;;;;3.85;1.38;;;;;;;12.96;100.00;101036.63;5088607;28;20055;-64
2023/10/09 04:10:52;;;;;;;2.30;1.00;;;;;;;13.06;100.00;101035.31;5090331;28;20050;-64
2023/10/09 04:13:32;;;;;;;2.35;1.20;;;;;;;13.14;100.00;101033.22;5092096;28;20205;-64
2023/10/09 04:16:11;;;;;;;2.90;1.27;;;;;;;13.18;100.00;101033.94;5085953;28;20058;-64
2023/10/09 04:18:39;;;;;;;2.92;1.23;;;;;;;13.21;100.00;101028.53;5089327;28;20539;-64
2023/10/09 04:21:18;;;;;;;3.22;1.40;;;;;;;13.19;100.00;101028.63;5087985;28;20508;-64
2023/10/09 04:26:47;;;;;;;;;;;;;;;13.30;100.00;101041.28;5083022;28;20056;-65
2023/10/09 04:29:26;;;;;;;4.80;1.83;;;;;;;13.20;100.00;101037.34;5091070;28;19935;-64
2023/10/09 04:32:00;;;;;;;3.95;1.42;;;;;;;13.19;100.00;101033.00;5089547;28;20097;-64
2023/10/09 04:37:00;;;;;;;3.47;1.60;;;;;;;13.25;100.00;101049.38;5091791;28;20048;-64
2023/10/09 04:47:49;;;;;;;3.38;1.25;;;;;;;13.28;100.00;101058.91;5089759;28;20059;-64
2023/10/09 04:52:51;;;;;;;1.95;0.95;;;;;;;13.23;100.00;101056.47;5095897;28;20048;-65
2023/10/09 04:55:24;;;;;;;;;;;;;;;13.30;100.00;101068.44;5089816;28;20048;-65
2023/10/09 05:01:35;;;;;;;2.15;1.10;;;;;;;13.23;100.00;101067.00;5080730;28;20064;-65
2023/10/09 05:09:09;;;;;;;1.98;1.02;;;;;;;13.21;100.00;101079.34;5060536;28;20497;-65
2023/10/09 05:11:53;;;;;;;2.45;1.02;;;;;;;13.20;100.00;101090.78;5077319;28;20051;-65
2023/10/09 05:14:26;;;;;;;1.77;1.00;;;;;;;13.25;100.00;101101.13;5075979;28;20105;-65
2023/10/09 05:16:54;;;;;;;2.00;1.00;;;;;;;13.31;100.00;101108.75;5090347;28;20413;-65
2023/10/09 05:19:33;;;;;;;1.60;0.90;;;;;;;13.29;100.00;101111.41;5085455;28;20555;-65
2023/10/09 05:22:07;;;;;;;0.77;0.70;;;;;;;13.26;100.00;101103.69;5090085;28;20505;-65
2023/10/09 05:24:47;;;;;;;0.93;0.80;;;;;;;13.21;100.00;101107.41;5090642;28;20076;-65
2023/10/09 05:27:24;;;;;;;1.08;0.80;;;;;;;13.25;100.00;101117.72;5083495;28;20414;-65
2023/10/09 05:30:12;;;;;;;1.13;0.80;;;;;;;13.34;100.00;101124.41;5086518;28;20105;-65
2023/10/09 05:32:48;;;;;;;1.33;0.90;;;;;;;13.30;100.00;101114.91;5072820;28;20052;-65
2023/10/09 05:35:29;;;;;;;0.88;0.80;;;;;;;13.33;100.00;101124.47;5073484;28;20048;-65
2023/10/09 05:38:04;;;;;;;0.70;0.70;;;;;;;13.33;100.00;101127.09;5074070;28;20150;-65
2023/10/09 05:40:31;;;;;;;0.68;0.63;;;;;;;13.34;100.00;101132.31;5078153;28;20398;-65
2023/10/09 05:42:59;;;;;;;0.73;0.70;;;;;;;13.36;100.00;101133.09;5071023;28;20102;-65
2023/10/09 05:51:10;;;;;;;0.82;0.70;;;;;;;13.40;100.00;101149.59;5073801;28;20101;-65
2023/10/09 05:54:11;;;;;;;0.95;0.75;;;;;;;13.39;100.00;101146.13;5073692;28;20045;-65
2023/10/09 06:07:13;;;;;;;0.68;0.68;;;;;;;13.40;100.00;101153.09;5069983;28;20127;-65
2023/10/09 06:09:49;;;;;;;0.70;0.70;;;;;;;13.37;100.00;101160.22;5079801;28;20102;-65
2023/10/09 06:15:31;;;;;;;1.50;0.73;;;;;;;13.38;100.00;101164.59;5074826;28;20048;-65
2023/10/09 06:18:25;;;;;;;1.00;0.73;;;;;;;13.37;100.00;101170.75;5071205;28;20084;-65
2023/10/09 06:26:24;;;;;;;0.77;0.70;;;;;;;13.38;100.00;101165.44;5071843;28;20479;-65
2023/10/09 06:29:14;;;;;;;1.17;0.73;;;;;;;13.41;100.00;101169.72;5085659;28;20052;-65
2023/10/09 06:31:57;;;;;;;1.27;0.80;;;;;;;13.38;100.00;101162.81;5067125;28;20048;-65
2023/10/09 06:34:35;;;;;;;0.60;0.60;;;;;;;13.38;100.00;101165.44;5068179;28;20040;-65
2023/10/09 06:37:34;;;;;;;1.40;0.80;;;;;;;13.37;100.00;101162.84;5069009;28;20096;-65
2023/10/09 06:47:41;;;;;;;1.42;0.90;;;;;;;13.29;100.00;101166.63;5070441;28;20135;-65
2023/10/09 06:52:57;;;;;;;0.90;0.80;;;;;;;13.32;100.00;101175.38;5070578;28;20056;-64
2023/10/09 06:55:48;;;;;;;2.78;0.80;;;;;;;13.30;100.00;101172.78;5075208;28;20048;-64
2023/10/09 06:58:28;;;;;;;1.10;0.70;;;;;;;13.35;100.00;101183.13;5071990;28;20049;-64
2023/10/09 07:03:29;;;;;;;1.33;0.80;;;;;;;13.38;100.00;101196.16;5069861;28;20441;-64
2023/10/09 07:06:24;;;;;;;0.85;0.70;;;;;;;13.37;100.00;101191.78;5081812;28;20044;-67
2023/10/09 07:17:15;;;;;;;0.85;0.75;;;;;;;13.44;100.00;101203.78;5082876;28;20131;-68
2023/10/09 07:24:57;;;;;;;0.70;0.70;;;;;;;13.39;100.00;101208.38;5081859;28;20040;-67
2023/10/09 07:27:48;;;;;;;1.52;0.70;;;;;;;13.28;100.00;101207.03;5070915;28;20109;-68
2023/10/09 07:35:54;;;;;;;1.73;0.80;;;;;;;13.20;100.00;101238.03;5070595;28;20673;-68
2023/10/09 07:38:23;;;;;;;1.43;0.80;;;;;;;13.20;100.00;101229.28;5079694;28;20059;-68
2023/10/09 07:46:30;;;;;;;0.90;0.70;;;;;;;13.41;100.00;101244.22;5073421;28;20117;-68
2023/10/09 07:49:08;;;;;;;1.80;0.80;;;;;;;13.36;100.00;101237.44;5073517;28;20053;-68
2023/10/09 07:51:43;;;;;;;1.27;0.80;;;;;;;13.42;100.00;101242.44;5073663;28;20052;-68
2023/10/09 07:54:14;;;;;;;1.25;0.73;;;;;;;13.46;100.00;101244.88;5087013;28;20059;-68
2023/10/09 07:56:46;;;;;;;1.95;0.90;;;;;;;13.51;100.00;101254.34;5084371;28;20382;-68
2023/10/09 07:59:17;;;;;;;2.78;0.90;;;;;;;13.36;100.00;101250.59;5074905;28;20443;-68
2023/10/09 08:01:52;;;;;;;2.08;0.90;;;;;;;13.40;100.00;101241.66;5072579;28;20052;-68
2023/10/09 08:04:39;;;;;;;5.70;1.13;;;;;;;13.32;100.00;101228.81;5080928;28;20067;-68
2023/10/09 08:07:19;;;;;;;1.75;0.90;;;;;;;13.41;100.00;101238.94;5093029;28;20063;-68
2023/10/09 08:17:54;;;;;;;4.15;0.90;;;;;;;13.59;100.00;101239.97;5091449;28;20052;-67
2023/10/09 08:20:25;;;;;;;2.40;0.82;;;;;;;13.54;100.00;101228.75;5092487;28;20047;-68
2023/10/09 08:22:55;;;;;;;1.75;0.85;;;;;;;13.56;100.00;101240.06;5084594;28;20056;-68
2023/10/09 08:25:26;;;;;;;3.20;0.90;;;;;;;13.74;100.00;101234.97;5085261;28;20052;-68
2023/10/09 08:28:39;;;;;;;3.25;0.88;;;;;;;13.68;100.00;101242.19;5077447;28;20093;-68
2023/10/09 08:31:18;;;;;;;2.17;0.90;;;;;;;13.47;100.00;101245.72;5092129;28;20052;-68
2023/10/09 08:33:56;;;;;;;1.05;0.80;;;;;;;13.74;100.00;101241.09;5091454;28;20063;-68
2023/10/09 08:36:28;;;;;;;2.50;1.00;;;;;;;13.97;100.00;101234.84;5091894;28;20386;-68
2023/10/09 08:38:58;;;;;;;2.63;1.00;;;;;;;14.38;100.00;101242.66;5091783;28;20048;-68
2023/10/09 08:41:29;;;;;;;2.00;0.90;;;;;;;14.48;100.00;101244.88;5086904;28;20057;-68
2023/10/09 08:43:57;;;;;;;2.03;0.75;;;;;;;14.45;100.00;101235.34;5083979;28;20048;-68
2023/10/09 08:46:29;;;;;;;2.85;1.00;;;;;;;14.47;100.00;101227.38;5091660;28;20093;-68
2023/10/09 08:48:58;;;;;;;3.95;1.00;;;;;;;14.51;100.00;101223.66;5090817;28;20723;-68
2023/10/09 08:51:27;;;;;;;1.80;0.90;;;;;;;14.66;100.00;101232.66;5091506;28;20051;-68
2023/10/09 08:53:54;;;;;;;2.13;0.80;;;;;;;14.77;100.00;101227.75;5091860;28;20411;-68
2023/10/09 08:56:22;;;;;;;2.45;1.00;;;;;;;14.89;100.00;101237.72;5091810;28;20486;-68
2023/10/09 08:58:51;;;;;;;1.85;0.80;;;;;;;14.73;100.00;101232.31;5090941;28;20331;-68
2023/10/09 09:01:21;;;;;;;0.70;0.70;;;;;;;14.30;100.00;101225.50;5092195;28;20044;-68
2023/10/09 09:03:50;;;;;;;2.03;0.80;;;;;;;14.61;100.00;101233.72;5077429;28;20048;-68
2023/10/09 09:06:20;;;;;;;2.40;0.90;;;;;;;14.70;100.00;101239.50;5091854;28;20048;-68
2023/10/09 09:08:47;;;;;;;2.17;0.80;;;;;;;14.38;100.00;101240.03;5085990;28;20052;-68
2023/10/09 09:13:50;;;;;;;2.13;0.80;;;;;;;14.51;100.00;101239.47;5091722;28;20056;-68
2023/10/09 09:16:30;;;;;;;2.15;1.08;;;;;;;14.35;100.00;101237.53;5091354;28;20086;-68
2023/10/09 09:22:12;;;;;;;1.52;0.70;;;;;;;14.55;100.00;101227.84;5092062;28;20056;-68
2023/10/09 09:24:45;;;;;;;3.10;0.90;;;;;;;14.42;100.00;101241.59;5081654;28;20452;-68
2023/10/09 09:27:18;;;;;;;3.25;1.00;;;;;;;14.59;100.00;101240.84;5084123;28;20070;-68
2023/10/09 09:29:52;;;;;;;1.20;0.70;;;;;;;14.47;100.00;101219.47;5089529;28;20047;-68
2023/10/09 09:32:35;;;;;;;1.10;0.70;;;;;;;14.44;100.00;101233.63;5076926;28;20048;-68
2023/10/09 09:35:05;;;;;;;;;;;;;;;14.60;100.00;101239.06;5091857;28;20474;-68
2023/10/09 09:40:30;;;;;;;2.85;0.80;;;;;;;14.76;100.00;101229.50;5079520;28;20108;-68
2023/10/09 09:43:05;;;;;;;1.35;0.80;;;;;;;14.97;100.00;101219.72;5090407;28;20505;-68
2023/10/09 09:45:36;;;;;;;2.35;0.82;;;;;;;15.03;100.00;101208.00;5088179;28;20123;-68
2023/10/09 09:48:06;;;;;;;1.90;0.80;;;;;;;14.96;100.00;101209.25;5090217;28;20104;-68
2023/10/09 09:50:36;;;;;;;2.92;0.73;;;;;;;14.93;100.00;101202.34;5090775;28;20354;-68
2023/10/09 09:53:07;;;;;;;4.85;0.95;;;;;;;14.84;100.00;101196.66;5091105;28;20040;-68
2023/10/09 09:55:41;;;;;;;1.27;0.70;;;;;;;14.85;100.00;101203.66;5091104;28;20126;-68
2023/10/09 09:58:18;;;;;;;1.67;0.80;;;;;;;14.78;100.00;101211.00;5090052;28;20474;-68
2023/10/09 10:00:52;;;;;;;2.13;0.85;;;;;;;14.72;100.00;101214.78;5090969;28;20101;-68
2023/10/09 10:03:29;;;;;;;2.05;0.73;;;;;;;14.87;100.00;101213.19;5077236;28;20126;-68
2023/10/09 10:05:58;;;;;;;1.27;0.75;;;;;;;14.97;100.00;101218.88;5077581;28;20047;-68
2023/10/09 10:08:32;;;;;;;2.92;0.98;;;;;;;15.02;100.00;101211.59;5078737;28;20055;-68
2023/10/09 10:11:05;;;;;;;1.17;0.80;;;;;;;15.01;100.00;101204.59;5077050;28;20444;-68
2023/10/09 10:13:41;;;;;;;0.98;0.80;;;;;;;15.18;100.00;101207.28;5089608;28;20403;-68
2023/10/09 10:19:40;;;;;;;2.22;0.90;;;;;;;15.13;100.00;101211.06;5089107;28;20095;-68
2023/10/09 10:21:42;;;;;;;2.88;0.85;;;;;;;15.18;100.00;101216.97;5069353;28;20059;-68
2023/10/09 10:24:30;;;;;;;1.33;0.70;;;;;;;15.38;100.00;101224.75;5077403;28;20048;-68
2023/10/09 10:27:26;;;;;;;0.60;0.60;;;;;;;15.25;100.00;101226.28;5083726;28;20390;-68
2023/10/09 10:30:09;;;;;;;1.38;0.77;;;;;;;15.38;100.00;101226.53;5076804;28;20150;-68
2023/10/09 10:32:51;;;;;;;0.93;0.68;;;;;;;15.35;100.00;101227.56;5089673;28;20093;-68
2023/10/09 10:35:45;;;;;;;1.02;0.70;;;;;;;15.50;100.00;101217.16;5078727;28;20040;-67
2023/10/09 10:38:45;;;;;;;1.08;0.70;;;;;;;15.45;100.00;101220.03;5085190;28;20105;-68
2023/10/09 10:41:17;;;;;;;1.40;0.70;;;;;;;15.52;100.00;101212.66;5087217;28;20046;-67
2023/10/09 10:43:54;;;;;;;1.23;0.70;;;;;;;15.50;100.00;101211.88;5090331;28;20048;-67
2023/10/09 10:49:14;;;;;;;0.88;0.70;;;;;;;15.50;100.00;101204.81;5089492;28;20052;-67
2023/10/09 10:51:49;;;;;;;0.60;0.60;;;;;;;15.69;100.00;101204.72;5090021;28;20469;-68
2023/10/09 10:54:45;;;;;;;0.60;0.60;;;;;;;15.81;100.00;101183.94;5089919;28;20135;-68
2023/10/09 10:57:28;;;;;;;0.77;0.65;;;;;;;15.80;100.00;101187.50;5091276;28;20097;-67
2023/10/09 11:00:12;;;;;;;1.38;0.70;;;;;;;15.73;100.00;101174.59;5090354;28;20040;-68
2023/10/09 11:02:40;;;;;;;;;;;;;;;15.95;100.00;101184.03;5092808;28;20101;-67
2023/10/09 11:05:26;;;;;;;1.42;0.70;;;;;;;15.67;100.00;101176.69;5093714;28;19947;-67
2023/10/09 11:07:57;;;;;;;1.98;0.77;;;;;;;15.60;100.00;101178.81;5082293;28;20052;-67
2023/10/09 11:10:31;;;;;;;2.03;0.88;;;;;;;15.82;100.00;101168.00;5093113;28;20062;-68
2023/10/09 11:15:44;;;;;;;1.20;0.70;;;;;;;15.76;100.00;101170.97;5079804;28;20059;-67
2023/10/09 11:18:24;;;;;;;0.68;0.68;;;;;;;15.91;100.00;101158.75;5093211;28;20473;-67
2023/10/09 11:20:57;;;;;;;0.65;0.65;;;;;;;15.88;100.00;101161.53;5093593;28;20095;-68
2023/10/09 11:23:36;;;;;;;1.10;0.75;;;;;;;15.83;100.00;101153.00;5086837;28;20040;-68
2023/10/09 11:29:15;;;;;;;1.48;0.70;;;;;;;15.87;100.00;101155.41;5093245;28;20059;-67
2023/10/09 11:32:06;;;;;;;1.13;0.70;;;;;;;15.83;100.00;101153.88;5082477;28;20039;-68
2023/10/09 11:34:36;;;;;;;1.42;0.80;;;;;;;16.22;100.00;101146.50;5092716;28;20290;-68
2023/10/09 11:37:12;;;;;;;1.88;0.80;;;;;;;16.39;100.00;101151.72;5093823;28;20059;-67
2023/10/09 11:39:51;;;;;;;1.48;0.70;;;;;;;16.79;100.00;101138.91;5092923;28;20040;-67
2023/10/09 11:42:48;;;;;;;1.88;0.80;;;;;;;17.03;100.00;101146.41;5080298;28;20053;-67
2023/10/09 11:45:29;;;;;;;0.60;0.60;;;;;;;16.85;100.00;101145.66;5082096;28;20047;-67
2023/10/09 11:47:59;;;;;;;1.08;0.70;;;;;;;16.74;100.00;101140.97;5089000;28;20677;-67
2023/10/09 11:51:17;;;;;;;0.90;0.70;;;;;;;16.81;100.00;101142.31;5072445;28;20057;-67
2023/10/09 11:53:45;;;;;;;0.85;0.60;;;;;;;16.69;100.00;101122.72;5092737;28;20166;-68
2023/10/09 11:56:16;;;;;;;0.85;0.60;;;;;;;16.69;100.00;101121.88;5093022;28;20048;-68
2023/10/09 11:58:43;;;;;;;0.82;0.70;;;;;;;16.66;100.00;101138.78;5092535;28;20044;-68
2023/10/09 12:01:17;;;;;;;1.27;0.60;;;;;;;16.80;100.00;101140.63;5079502;28;20109;-68
2023/10/09 12:03:49;;;;;;;0.75;0.60;;;;;;;16.74;100.00;101130.41;5075358;28;20044;-68
2023/10/09 12:06:22;;;;;;;0.60;0.60;;;;;;;16.84;100.00;101134.25;5093817;28;20040;-68
2023/10/09 12:08:49;;;;;;;1.05;0.77;;;;;;;16.78;100.00;101125.78;5088506;28;20490;-68
2023/10/09 12:11:24;;;;;;;1.65;0.70;;;;;;;16.70;100.00;101120.94;5081048;28;20052;-68
2023/10/09 12:13:56;;;;;;;1.23;0.60;;;;;;;16.61;100.00;101122.31;5090719;28;20084;-68
2023/10/09 12:16:27;;;;;;;1.58;0.60;;;;;;;16.53;100.00;101135.09;5081681;28;20040;-68
2023/10/09 12:18:56;;;;;;;0.70;0.60;;;;;;;16.57;100.00;101115.47;5080344;28;20072;-68
2023/10/09 12:21:23;;;;;;;1.55;0.70;;;;;;;16.74;100.00;101122.47;5093195;28;20409;-68
2023/10/09 12:23:50;;;;;;;1.65;0.80;;;;;;;16.57;100.00;101115.47;5087480;28;20355;-68
2023/10/09 12:26:17;;;;;;;1.48;0.77;;;;;;;16.49;100.00;101118.56;5092613;28;20055;-68
2023/10/09 12:28:45;;;;;;;1.15;0.70;;;;;;;16.47;100.00;101109.88;5082418;28;20052;-68
2023/10/09 12:31:19;;;;;;;1.00;0.70;;;;;;;16.46;100.00;101104.66;5087044;28;20041;-66
2023/10/09 12:33:47;;;;;;;1.73;0.80;;;;;;;16.59;100.00;101107.47;5084870;28;20496;-67
2023/10/09 12:36:19;;;;;;;0.93;0.68;;;;;;;16.53;100.00;101098.09;5078449;28;20443;-68
2023/10/09 12:38:53;;;;;;;1.13;0.70;;;;;;;16.35;100.00;101094.72;5090891;28;20398;-67
2023/10/09 12:41:33;;;;;;;0.52;0.50;;;;;;;16.48;100.00;101095.75;5091230;28;20113;-68
2023/10/09 12:44:01;;;;;;;1.15;0.70;;;;;;;16.49;100.00;101091.28;5092576;28;20048;-68
2023/10/09 12:46:28;;;;;;;1.17;0.70;;;;;;;16.45;100.00;101087.97;5092716;28;20451;-67
2023/10/09 12:48:55;;;;;;;0.98;0.70;;;;;;;16.17;100.00;101074.63;5091286;28;20078;-67
2023/10/09 12:51:29;;;;;;;2.30;0.80;;;;;;;15.94;100.00;101088.13;5092318;28;20142;-67
2023/10/09 12:53:57;;;;;;;1.38;0.70;;;;;;;15.89;100.00;101078.75;5092527;28;20127;-67
2023/10/09 12:56:32;;;;;;;2.13;0.90;;;;;;;15.68;100.00;101083.38;5091856;28;20127;-67
2023/10/09 12:59:00;;;;;;;2.03;0.90;;;;;;;15.05;100.00;101095.44;5091445;28;20109;-67
2023/10/09 13:01:42;;;;;;;2.75;0.90;;;;;;;14.96;100.00;101093.22;5092403;28;20446;-67
2023/10/09 13:04:17;;;;;;;3.45;0.80;;;;;;;15.11;100.00;101094.25;5078395;28;20242;-67
2023/10/09 13:06:45;;;;;;;2.05;0.80;;;;;;;15.15;100.00;101099.28;5092431;28;20052;-68
2023/10/09 13:09:42;;;;;;;0.82;0.70;;;;;;;15.10;100.00;101087.25;5090801;28;20140;-68
2023/10/09 13:12:17;;;;;;;1.20;0.70;;;;;;;15.01;100.00;101093.84;5091429;28;20170;-68
2023/10/09 13:14:47;;;;;;;2.45;0.93;;;;;;;14.89;100.00;101076.00;5091524;28;20486;-67
2023/10/09 13:17:14;;;;;;;3.08;1.10;;;;;;;14.93;100.00;101093.41;5106829;28;20560;-67
2023/10/09 13:19:40;;;;;;;2.05;0.80;;;;;;;14.89;100.00;101081.28;5089849;28;20052;-67
2023/10/09 13:22:12;;;;;;;2.40;1.00;;;;;;;14.85;100.00;101085.03;5091290;28;20048;-68
2023/10/09 13:24:41;;;;;;;2.85;1.08;;;;;;;14.81;100.00;101090.44;5078013;28;20043;-67
2023/10/09 13:27:09;;;;;;;2.30;0.90;;;;;;;14.79;100.00;101088.81;5091145;28;20484;-68
2023/10/09 13:29:39;;;;;;;1.33;0.90;;;;;;;14.88;100.00;101080.44;5090273;28;20048;-68
2023/10/09 13:32:14;;;;;;;2.50;0.90;;;;;;;14.90;100.00;101077.75;5092059;28;20481;-67
2023/10/09 13:34:45;;;;;;;3.08;1.13;;;;;;;14.78;100.00;101074.78;5090936;28;20488;-67
2023/10/09 13:37:13;;;;;;;3.72;1.23;;;;;;;14.62;100.00;101073.81;5091554;28;20051;-67
2023/10/09 13:39:52;;;;;;;3.55;1.33;;;;;;;14.41;100.00;101083.59;5090169;28;20051;-68
2023/10/09 13:42:19;;;;;;;6.13;1.52;;;;;;;14.42;100.00;101088.78;5084059;28;20052;-67
2023/10/09 13:44:48;;;;;;;5.38;1.60;;;;;;;14.44;100.00;101094.84;5090456;28;20569;-68
2023/10/09 13:47:23;;;;;;;3.70;1.27;;;;;;;14.39;100.00;101086.28;5088494;28;20115;-68
2023/10/09 13:49:50;;;;;;;4.80;1.50;;;;;;;14.44;100.00;101080.81;5090552;28;20279;-68
2023/10/09 13:52:21;;;;;;;4.32;1.35;;;;;;;14.68;100.00;101080.56;5089605;28;20048;-68
2023/10/09 13:54:49;;;;;;;4.43;1.33;;;;;;;14.65;100.00;101081.59;5089776;28;20047;-67
2023/10/09 13:57:16;;;;;;;3.75;1.23;;;;;;;14.64;100.00;101082.50;5090572;28;20051;-67
2023/10/09 13:59:52;;;;;;;3.65;1.02;;;;;;;14.55;100.00;101075.03;5089355;28;20112;-67